Lake Kitchawan, New York
Current Conditions -  °F | °C
As of 12:53 AM on Sunday 26 Oct 2014 (Local Time) from KDXR Reporting Station
Overcast Overcast  
Wind Chill: 55°   Ceiling: 9000
Heat Index: 55°   Visibility: 10mi
Dew Point: 46°   Wind: 5mph
Humidity: 72%   Direction: 260°W
Pressure: 29.56"   Gusts: NA
Location:  41.2554°N, 73.5385°W
Report Text: KDXR 260453Z AUTO 26004KT 10SM SCT065 OVC090 13/08 A2956 RMK AO2 RAE15 SLP008 P0000 T01280078 401830017
Loading
Personal Weather Stations






























Interactive Weather Map
Tropical Storm Tracking
New forecast layout! Learn more

10-Day Weather Forecast

Advertisements
Track Severe Weather on mobile